createdAt,value
2019-03-03T00:00:36.827Z,96608.00
2019-03-03T00:03:02.652Z,96618.98
2019-03-03T00:05:28.453Z,96594.58
2019-03-03T00:07:54.484Z,96592.15
2019-03-03T00:10:20.298Z,96586.91
2019-03-03T00:12:46.419Z,96583.53
2019-03-03T00:15:12.297Z,96585.74
2019-03-03T00:17:38.095Z,96582.88
2019-03-03T00:20:07.724Z,96582.03
2019-03-03T00:22:55.664Z,96582.54
2019-03-03T00:25:21.539Z,96581.55
2019-03-03T00:27:47.319Z,96581.55
2019-03-03T00:30:17.178Z,96583.77
2019-03-03T00:32:43.018Z,96590.24
2019-03-03T00:35:08.898Z,96587.89
2019-03-03T00:37:39.543Z,96589.56
2019-03-03T00:40:11.496Z,96594.95
2019-03-03T00:42:39.218Z,96583.66
2019-03-03T00:45:13.541Z,96582.30
2019-03-03T00:47:41.268Z,96568.35
2019-03-03T00:50:17.949Z,96574.90
2019-03-03T00:52:54.612Z,96581.23
2019-03-03T00:55:28.221Z,96578.72
2019-03-03T00:58:08.320Z,96579.39
2019-03-03T01:00:36.051Z,96592.96
2019-03-03T01:03:15.847Z,96573.35
2019-03-03T01:05:43.681Z,96575.25
2019-03-03T01:08:28.074Z,96580.69
2019-03-03T01:10:55.799Z,96577.98
2019-03-03T01:13:23.798Z,96580.20
2019-03-03T01:15:51.498Z,96584.27
2019-03-03T01:18:24.898Z,96595.83
2019-03-03T01:21:10.797Z,96592.34
2019-03-03T01:23:40.139Z,96597.66
2019-03-03T01:26:05.936Z,96595.83
2019-03-03T01:28:36.152Z,96601.24
2019-03-03T01:31:01.211Z,96596.44
2019-03-03T01:33:27.285Z,96594.22
2019-03-03T01:35:53.202Z,96590.81
2019-03-03T01:38:18.990Z,96592.00
2019-03-03T01:40:49.026Z,96588.91
2019-03-03T01:43:15.113Z,96608.78
2019-03-03T01:45:43.949Z,96582.12
2019-03-03T01:48:09.770Z,96587.78
2019-03-03T01:50:38.366Z,96581.30
2019-03-03T01:53:04.575Z,96581.00
2019-03-03T01:55:33.411Z,96572.00
2019-03-03T01:57:59.235Z,96590.58
2019-03-03T02:00:28.019Z,96569.48
2019-03-03T02:02:55.243Z,96580.77
2019-03-03T02:05:21.431Z,96556.08
2019-03-03T02:07:47.251Z,96559.11
2019-03-03T02:10:14.086Z,96556.08
2019-03-03T02:12:40.166Z,96556.63
2019-03-03T02:15:06.690Z,96561.19
2019-03-03T02:17:32.498Z,96555.16
2019-03-03T02:19:58.369Z,96545.23
2019-03-03T02:22:28.132Z,96548.75
2019-03-03T02:24:53.955Z,96551.44
2019-03-03T02:27:22.762Z,96544.11
2019-03-03T02:29:48.609Z,96561.64
2019-03-03T02:32:17.273Z,96535.66
2019-03-03T02:34:43.072Z,96541.70
2019-03-03T02:37:12.270Z,96538.49
2019-03-03T02:39:38.100Z,96549.61
2019-03-03T02:42:06.827Z,96523.56
2019-03-03T02:44:32.756Z,96543.07
2019-03-03T02:46:58.564Z,96515.97
2019-03-03T02:49:24.654Z,96507.80
2019-03-03T02:51:50.797Z,96510.23
2019-03-03T02:54:17.931Z,96505.45
2019-03-03T02:56:43.778Z,96498.59
2019-03-03T02:59:12.592Z,96503.63
2019-03-03T03:01:40.330Z,96515.29
2019-03-03T03:04:09.461Z,96494.77
2019-03-03T03:06:39.995Z,96491.43
2019-03-03T03:09:08.090Z,96486.70
2019-03-03T03:11:35.823Z,96496.13
2019-03-03T03:14:12.660Z,96506.05
2019-03-03T03:16:58.844Z,96491.88
2019-03-03T03:19:26.832Z,96482.30
2019-03-03T03:21:57.465Z,96485.58
2019-03-03T03:24:37.524Z,96485.09
2019-03-03T03:27:21.912Z,96485.82
2019-03-03T03:29:51.377Z,96480.64
2019-03-03T03:32:28.428Z,96482.08
2019-03-03T03:34:59.358Z,96487.48
2019-03-03T03:37:27.055Z,96485.96
2019-03-03T03:39:55.065Z,96485.27
2019-03-03T03:42:25.536Z,96479.48
2019-03-03T03:44:59.190Z,96468.00
2019-03-03T03:47:35.832Z,96464.80
2019-03-03T03:50:03.864Z,96458.75
2019-03-03T03:52:40.427Z,96456.78
2019-03-03T03:55:08.685Z,96460.59
2019-03-03T03:57:39.913Z,96454.13
2019-03-03T04:00:14.923Z,96446.30
2019-03-03T04:03:01.036Z,96442.17
2019-03-03T04:05:28.752Z,96305.67
2019-03-03T04:08:05.902Z,96439.08
2019-03-03T04:10:33.896Z,96437.17
2019-03-03T04:13:01.614Z,96445.17
2019-03-03T04:15:47.693Z,96436.25
2019-03-03T04:18:15.711Z,96431.70
2019-03-03T04:20:52.783Z,96436.73
2019-03-03T04:23:20.484Z,96440.68
2019-03-03T04:25:51.004Z,96439.80
2019-03-03T04:28:18.733Z,96456.20
2019-03-03T04:30:49.455Z,96458.11
2019-03-03T04:33:20.198Z,96457.42
2019-03-03T04:36:05.762Z,96457.84
2019-03-03T04:38:33.722Z,96459.95
2019-03-03T04:41:18.427Z,96454.25
2019-03-03T04:43:52.312Z,96448.09
2019-03-03T04:46:20.012Z,96450.58
2019-03-03T04:49:00.086Z,96449.39
2019-03-03T04:51:27.803Z,96450.58
2019-03-03T04:53:58.332Z,96452.72
2019-03-03T04:56:29.393Z,96457.59
2019-03-03T04:59:02.932Z,96455.48
2019-03-03T05:01:33.496Z,96453.17
2019-03-03T05:04:04.386Z,96457.29
2019-03-03T05:06:35.860Z,96475.16
2019-03-03T05:09:14.285Z,96470.36
2019-03-03T05:12:14.415Z,96469.78
2019-03-03T05:14:42.499Z,96463.16
2019-03-03T05:17:10.228Z,96457.14
2019-03-03T05:19:36.630Z,96474.88
2019-03-03T05:22:02.437Z,96464.15
2019-03-03T05:24:34.374Z,96459.34
2019-03-03T05:26:56.258Z,96448.09
2019-03-03T05:29:22.350Z,96452.94
2019-03-03T05:31:48.180Z,96448.09
2019-03-03T05:34:13.989Z,96438.81
2019-03-03T05:36:39.798Z,96440.42
2019-03-03T05:39:05.686Z,96429.02
2019-03-03T05:41:31.754Z,96428.68
2019-03-03T05:43:57.863Z,96434.09
2019-03-03T05:46:23.953Z,96420.32
2019-03-03T05:48:50.064Z,96416.58
2019-03-03T05:51:15.890Z,96423.31
2019-03-03T05:53:41.707Z,96425.42
2019-03-03T05:56:07.563Z,96423.06
2019-03-03T05:58:33.674Z,96419.78
2019-03-03T06:00:59.483Z,96424.91
2019-03-03T06:03:25.561Z,96424.16
2019-03-03T06:05:51.386Z,96424.72
2019-03-03T06:08:17.423Z,96422.50
2019-03-03T06:10:43.226Z,96422.91
2019-03-03T06:13:09.028Z,96413.30
2019-03-03T06:15:35.144Z,96440.56
2019-03-03T06:18:01.276Z,96417.11
2019-03-03T06:20:27.917Z,96416.63
2019-03-03T06:22:54.082Z,96411.75
2019-03-03T06:25:20.000Z,96407.61
2019-03-03T06:27:46.037Z,96412.80
2019-03-03T06:30:13.830Z,96412.10
2019-03-03T06:32:39.942Z,96404.40
2019-03-03T06:35:07.638Z,96402.25
2019-03-03T06:37:34.304Z,96403.41
2019-03-03T06:40:00.168Z,96395.08
2019-03-03T06:42:26.438Z,96396.23
2019-03-03T06:44:52.249Z,96398.94
2019-03-03T06:47:18.071Z,96406.08
2019-03-03T06:49:43.898Z,96404.98
2019-03-03T06:52:09.737Z,96396.13
2019-03-03T06:54:35.566Z,96386.69
2019-03-03T06:57:01.404Z,96396.31
2019-03-03T06:59:27.241Z,96394.23
2019-03-03T07:01:53.047Z,96394.60
2019-03-03T07:04:18.854Z,96387.63
2019-03-03T07:06:44.675Z,96375.26
2019-03-03T07:09:10.499Z,96382.63
2019-03-03T07:11:36.577Z,96394.36
2019-03-03T07:14:02.586Z,96392.80
2019-03-03T07:16:31.691Z,96397.31
2019-03-03T07:18:57.486Z,96418.08
2019-03-03T07:21:24.877Z,96404.42
2019-03-03T07:23:50.968Z,96400.91
2019-03-03T07:26:19.042Z,96416.66
2019-03-03T07:28:44.852Z,96402.76
2019-03-03T07:31:13.570Z,96409.73
2019-03-03T07:33:39.488Z,96404.91
2019-03-03T07:36:09.057Z,96409.09
2019-03-03T07:38:34.880Z,96403.42
2019-03-03T07:41:00.666Z,96402.89
2019-03-03T07:43:26.479Z,96411.20
2019-03-03T07:45:52.269Z,96436.41
2019-03-03T07:48:21.253Z,96421.92
2019-03-03T07:50:47.393Z,96416.47
2019-03-03T07:53:16.004Z,96423.33
2019-03-03T07:55:41.827Z,96443.52
2019-03-03T07:58:10.401Z,96433.59
2019-03-03T08:00:36.247Z,96435.95
2019-03-03T08:03:04.886Z,96389.97
2019-03-03T08:05:30.657Z,96441.62
2019-03-03T08:07:59.513Z,96433.17
2019-03-03T08:10:25.352Z,96434.58
2019-03-03T08:12:54.312Z,96432.46
2019-03-03T08:15:20.447Z,96430.31
2019-03-03T08:17:46.403Z,96440.61
2019-03-03T08:20:13.226Z,96431.42
2019-03-03T08:22:39.039Z,96434.05
2019-03-03T08:25:09.364Z,96430.66
2019-03-03T08:27:35.178Z,96431.20
2019-03-03T08:30:01.279Z,96437.34
2019-03-03T08:32:27.382Z,96438.00
2019-03-03T08:34:56.320Z,96441.73
2019-03-03T08:37:22.399Z,96462.52
2019-03-03T08:39:51.241Z,96443.23
2019-03-03T08:42:28.097Z,96455.39
2019-03-03T08:44:56.074Z,96427.65
2019-03-03T08:47:42.263Z,96425.61
2019-03-03T08:50:09.994Z,96426.56
2019-03-03T08:52:37.898Z,96420.08
2019-03-03T08:55:12.427Z,96423.70
2019-03-03T08:57:40.158Z,96434.75
2019-03-03T09:00:11.736Z,96425.67
2019-03-03T09:02:39.431Z,96423.72
2019-03-03T09:05:11.102Z,96426.41
2019-03-03T09:07:56.897Z,96427.87
2019-03-03T09:10:39.808Z,96424.91
2019-03-03T09:13:16.808Z,96428.27
2019-03-03T09:15:53.995Z,96435.02
2019-03-03T09:18:24.788Z,96435.77
2019-03-03T09:20:55.004Z,96438.62
2019-03-03T09:23:34.999Z,96437.31
2019-03-03T09:26:28.207Z,96432.51
2019-03-03T09:28:56.303Z,96435.36
2019-03-03T09:31:24.040Z,96432.32
2019-03-03T09:33:57.867Z,96434.36
2019-03-03T09:36:25.567Z,96433.99
2019-03-03T09:38:53.296Z,96446.05
2019-03-03T09:41:27.003Z,96440.20
2019-03-03T09:43:58.107Z,96441.99
2019-03-03T09:46:28.885Z,96449.42
2019-03-03T09:48:56.644Z,96454.62
2019-03-03T09:51:27.421Z,96452.84
2019-03-03T09:53:58.522Z,96443.45
2019-03-03T09:56:26.336Z,96445.69
2019-03-03T09:59:09.505Z,96447.55
2019-03-03T10:01:53.949Z,96443.86
2019-03-03T10:04:38.611Z,96435.78
2019-03-03T10:07:23.624Z,96460.83
2019-03-03T10:09:51.318Z,96441.27
2019-03-03T10:12:19.028Z,96443.09
2019-03-03T10:17:52.995Z,96441.70
2019-03-03T10:20:20.822Z,96455.63
2019-03-03T10:22:48.581Z,96451.54
2019-03-03T10:25:32.961Z,96443.86
2019-03-03T10:28:03.972Z,96450.72
2019-03-03T10:30:31.671Z,96448.13
2019-03-03T10:33:08.256Z,96444.95
2019-03-03T10:35:35.952Z,96441.05
2019-03-03T10:38:04.077Z,96435.48
2019-03-03T10:40:34.892Z,96452.17
2019-03-03T10:43:05.879Z,96429.91
2019-03-03T10:45:39.659Z,96430.72
2019-03-03T10:48:24.394Z,96436.94
2019-03-03T10:51:04.244Z,96435.48
2019-03-03T10:53:38.346Z,96423.59
2019-03-03T10:56:09.272Z,96421.72
2019-03-03T10:58:39.779Z,96433.34
2019-03-03T11:01:16.767Z,96432.33
2019-03-03T11:04:02.695Z,96422.00
2019-03-03T11:06:30.387Z,96416.91
2019-03-03T11:09:03.940Z,96421.33
2019-03-03T11:11:49.560Z,96422.01
2019-03-03T11:14:23.683Z,96418.94
2019-03-03T11:16:57.586Z,96412.36
2019-03-03T11:19:42.100Z,96408.72
2019-03-03T11:25:08.979Z,96406.68
2019-03-03T11:27:36.782Z,96408.98
2019-03-03T11:33:06.402Z,96396.21
2019-03-03T11:35:37.000Z,96387.16
2019-03-03T11:38:21.697Z,96383.86
2019-03-03T11:40:55.700Z,96383.73
2019-03-03T11:43:26.208Z,96373.81
2019-03-03T11:45:54.200Z,96370.94
2019-03-03T11:48:38.993Z,96369.90
2019-03-03T11:51:06.691Z,96373.31
2019-03-03T11:53:51.380Z,96362.69
2019-03-03T11:56:19.399Z,96367.13
2019-03-03T11:58:56.372Z,96376.77
2019-03-03T12:01:24.115Z,96370.63
2019-03-03T12:03:51.817Z,96371.66
2019-03-03T12:06:22.884Z,96366.31
2019-03-03T12:08:53.238Z,96300.38
2019-03-03T12:11:33.097Z,96353.74
2019-03-03T12:14:00.830Z,96360.22
2019-03-03T12:16:40.332Z,96352.30
2019-03-03T12:19:17.463Z,96343.17
2019-03-03T12:21:48.132Z,96335.24
2019-03-03T12:24:16.065Z,96340.27
2019-03-03T12:26:46.673Z,96323.47
2019-03-03T12:29:32.947Z,96327.16
2019-03-03T12:32:09.792Z,96320.66
2019-03-03T12:34:40.325Z,96302.80
2019-03-03T12:37:08.051Z,96299.85
2019-03-03T12:39:35.753Z,96298.97
2019-03-03T12:42:12.701Z,96296.20
2019-03-03T12:44:46.780Z,96301.77
2019-03-03T12:47:27.036Z,96297.92
2019-03-03T12:50:13.134Z,96296.75
2019-03-03T12:52:43.623Z,96293.19
2019-03-03T12:55:12.040Z,96294.04
2019-03-03T12:57:49.238Z,96294.40
2019-03-03T13:00:32.504Z,96296.94
2019-03-03T13:03:02.978Z,96277.14
2019-03-03T13:05:36.761Z,96279.74
2019-03-03T13:08:10.341Z,96264.47
2019-03-03T13:10:40.559Z,96267.53
2019-03-03T13:13:11.319Z,96252.97
2019-03-03T13:15:56.006Z,96252.94
2019-03-03T13:18:23.992Z,96232.71
2019-03-03T13:21:10.411Z,96234.04
2019-03-03T13:23:38.425Z,96230.03
2019-03-03T13:26:15.334Z,96232.51
2019-03-03T13:28:43.353Z,96223.88
2019-03-03T13:31:16.659Z,96222.56
2019-03-03T13:34:02.357Z,96229.59
2019-03-03T13:36:32.811Z,96222.52
2019-03-03T13:39:03.771Z,96227.50
2019-03-03T13:41:37.335Z,96228.21
2019-03-03T13:44:03.437Z,96213.98
2019-03-03T13:46:29.246Z,96216.36
2019-03-03T13:48:55.366Z,96214.34
2019-03-03T13:51:21.172Z,96215.16
2019-03-03T13:53:46.990Z,96205.42
2019-03-03T13:56:12.772Z,96209.69
2019-03-03T13:58:38.871Z,96206.59
2019-03-03T14:01:04.908Z,96206.31
2019-03-03T14:03:31.065Z,96208.45
2019-03-03T14:05:56.872Z,96199.95
2019-03-03T14:08:23.087Z,96196.17
2019-03-03T14:10:49.266Z,96196.89
2019-03-03T14:13:15.319Z,96190.20
2019-03-03T14:15:41.135Z,96190.13
2019-03-03T14:18:06.939Z,96175.09
2019-03-03T14:20:33.036Z,96126.28
2019-03-03T14:22:58.865Z,96161.42
2019-03-03T14:25:44.658Z,96153.42
2019-03-03T14:28:10.469Z,96149.35
2019-03-03T14:30:36.565Z,96141.91
2019-03-03T14:33:02.482Z,96087.74
2019-03-03T14:35:28.283Z,96142.11
2019-03-03T14:37:54.412Z,96132.14
2019-03-03T14:40:41.996Z,96128.83
2019-03-03T14:43:07.903Z,96126.58
2019-03-03T14:45:33.716Z,96128.77
2019-03-03T14:47:59.566Z,96119.64
2019-03-03T14:50:25.371Z,96136.84
2019-03-03T14:52:53.055Z,96129.37
2019-03-03T14:55:19.067Z,96125.59
2019-03-03T14:57:45.204Z,96127.47
2019-03-03T15:00:19.471Z,96136.14
2019-03-03T15:02:45.301Z,96133.64
2019-03-03T15:05:11.125Z,96132.09
2019-03-03T15:07:36.919Z,96127.32
2019-03-03T15:10:06.536Z,96119.24
2019-03-03T15:12:32.420Z,96121.09
2019-03-03T15:14:58.223Z,96112.77
2019-03-03T15:17:24.039Z,96116.83
2019-03-03T15:19:50.116Z,96097.13
2019-03-03T15:22:15.945Z,96104.74
2019-03-03T15:24:42.029Z,96099.28
2019-03-03T15:27:07.860Z,96094.31
2019-03-03T15:29:33.686Z,96093.81
2019-03-03T15:31:59.509Z,96093.81
2019-03-03T15:34:25.341Z,96094.27
2019-03-03T15:36:51.115Z,96103.03
2019-03-03T15:39:17.404Z,96097.32
2019-03-03T15:41:43.196Z,96095.66
2019-03-03T15:44:09.029Z,96095.55
2019-03-03T15:46:34.853Z,96089.03
2019-03-03T15:49:00.661Z,96087.73
2019-03-03T15:51:26.460Z,96085.30
2019-03-03T15:53:52.373Z,96083.28
2019-03-03T15:56:18.624Z,96034.49
2019-03-03T15:58:44.693Z,96077.67
2019-03-03T16:01:12.687Z,96079.82
2019-03-03T16:03:38.516Z,96077.92
2019-03-03T16:06:04.435Z,96066.44
2019-03-03T16:08:30.534Z,96053.50
2019-03-03T16:10:56.641Z,96058.36
2019-03-03T16:13:22.755Z,96060.96
2019-03-03T16:15:48.594Z,96045.68
2019-03-03T16:18:14.693Z,96044.62
2019-03-03T16:20:40.519Z,96029.44
2019-03-03T16:23:06.332Z,96022.22
2019-03-03T16:25:32.160Z,96015.66
2019-03-03T16:27:58.053Z,96006.28
2019-03-03T16:30:24.211Z,96005.03
2019-03-03T16:32:50.021Z,96004.19
2019-03-03T16:35:16.030Z,96009.72
2019-03-03T16:37:41.958Z,96007.92
2019-03-03T16:40:19.005Z,96014.70
2019-03-03T16:42:45.063Z,96015.37
2019-03-03T16:45:13.144Z,95994.64
2019-03-03T16:47:39.282Z,95996.89
2019-03-03T16:50:08.159Z,95994.03
2019-03-03T16:52:33.970Z,95990.12
2019-03-03T16:54:59.811Z,95989.52
2019-03-03T16:57:25.663Z,95996.39
2019-03-03T16:59:51.481Z,96001.73
2019-03-03T17:02:17.618Z,95998.74
2019-03-03T17:04:43.425Z,95993.41
2019-03-03T17:07:09.546Z,95992.91
2019-03-03T17:09:35.617Z,96006.63
2019-03-03T17:12:01.813Z,95986.53
2019-03-03T17:14:27.646Z,95980.72
2019-03-03T17:16:53.783Z,95989.91
2019-03-03T17:19:19.597Z,95981.11
2019-03-03T17:21:45.477Z,95989.91
2019-03-03T17:24:14.722Z,95998.16
2019-03-03T17:26:40.620Z,95998.27
2019-03-03T17:29:06.447Z,96000.16
2019-03-03T17:31:32.500Z,95995.41
2019-03-03T17:33:58.301Z,96002.62
2019-03-03T17:36:27.171Z,96003.70
2019-03-03T17:38:52.984Z,96003.02
2019-03-03T17:41:21.567Z,96004.77
2019-03-03T17:43:47.402Z,96020.84
2019-03-03T17:46:15.998Z,96008.30
2019-03-03T17:48:42.107Z,96006.03
2019-03-03T17:51:11.060Z,96002.22
2019-03-03T17:53:36.870Z,95996.15
2019-03-03T17:56:05.625Z,95990.23
2019-03-03T17:58:31.438Z,95984.08
2019-03-03T18:01:00.268Z,95982.63
2019-03-03T18:03:26.069Z,95978.59
2019-03-03T18:05:52.205Z,95969.95
2019-03-03T18:08:18.020Z,95964.19
2019-03-03T18:10:43.832Z,95960.13
2019-03-03T18:13:12.655Z,95945.31
2019-03-03T18:15:38.766Z,95948.52
2019-03-03T18:18:07.355Z,95925.60
2019-03-03T18:20:33.162Z,95937.41
2019-03-03T18:23:01.784Z,95918.84
2019-03-03T18:25:27.845Z,95927.59
2019-03-03T18:27:57.001Z,95918.13
2019-03-03T18:30:25.859Z,95913.13
2019-03-03T18:32:52.031Z,95909.94
2019-03-03T18:35:18.209Z,95914.33
2019-03-03T18:37:47.543Z,95915.27
2019-03-03T18:40:15.452Z,95912.62
2019-03-03T18:42:41.283Z,95906.23
2019-03-03T18:45:09.587Z,95895.67
2019-03-03T18:47:35.419Z,95906.86
2019-03-03T18:50:01.655Z,95895.97
2019-03-03T18:52:27.759Z,95888.30
2019-03-03T18:54:53.584Z,95884.16
2019-03-03T18:57:21.211Z,95887.96
2019-03-03T18:59:47.108Z,95895.20
2019-03-03T19:02:13.513Z,95883.55
2019-03-03T19:04:40.635Z,95877.91
2019-03-03T19:07:06.487Z,95874.12
2019-03-03T19:09:38.013Z,95868.81
2019-03-03T19:12:03.839Z,95874.17
2019-03-03T19:14:32.802Z,95873.34
2019-03-03T19:16:58.924Z,95879.03
2019-03-03T19:19:24.734Z,95869.68
2019-03-03T19:21:50.569Z,95869.79
2019-03-03T19:24:16.653Z,95863.78
2019-03-03T19:26:42.475Z,95869.70
2019-03-03T19:29:08.290Z,95860.23
2019-03-03T19:31:36.943Z,95863.19
2019-03-03T19:34:02.860Z,95857.53
2019-03-03T19:36:31.844Z,95854.46
2019-03-03T19:38:57.934Z,95856.12
2019-03-03T19:41:26.523Z,95842.85
2019-03-03T19:43:52.733Z,95836.23
2019-03-03T19:46:21.739Z,95819.56
2019-03-03T19:48:47.674Z,95846.80
2019-03-03T19:51:16.489Z,95837.30
2019-03-03T19:53:42.609Z,95845.36
2019-03-03T19:56:08.905Z,95832.34
2019-03-03T19:58:34.951Z,95823.58
2019-03-03T20:01:00.933Z,95816.47
2019-03-03T20:03:28.013Z,95802.39
2019-03-03T20:05:54.183Z,95802.39
2019-03-03T20:08:22.828Z,95803.94
2019-03-03T20:10:48.785Z,95822.63
2019-03-03T20:13:17.646Z,95806.89
2019-03-03T20:15:43.928Z,95808.66
2019-03-03T20:18:12.816Z,95799.19
2019-03-03T20:20:38.828Z,95807.95
2019-03-03T20:23:06.099Z,95794.34
2019-03-03T20:25:32.045Z,95801.69
2019-03-03T20:28:00.444Z,95789.48
2019-03-03T20:30:26.295Z,95788.08
2019-03-03T20:32:52.094Z,95783.11
2019-03-03T20:35:17.891Z,95782.16
2019-03-03T20:37:44.206Z,95783.70
2019-03-03T20:40:15.442Z,95772.69
2019-03-03T20:42:41.505Z,95769.03
2019-03-03T20:45:32.207Z,95759.18
2019-03-03T20:47:58.052Z,95759.56
2019-03-03T20:50:24.147Z,95757.17
2019-03-03T20:52:49.952Z,95759.66
2019-03-03T20:55:26.067Z,95762.64
2019-03-03T20:57:52.179Z,95762.28
2019-03-03T21:00:29.402Z,95751.27
2019-03-03T21:02:55.448Z,95751.14
2019-03-03T21:05:21.337Z,95746.89
2019-03-03T21:07:51.526Z,95732.91
2019-03-03T21:10:18.634Z,95733.13
2019-03-03T21:12:44.485Z,95631.17
2019-03-03T21:15:11.300Z,95717.96
2019-03-03T21:17:37.295Z,95708.49
2019-03-03T21:20:09.117Z,95711.42
2019-03-03T21:22:36.216Z,95703.95
2019-03-03T21:25:04.573Z,95701.84
2019-03-03T21:27:30.629Z,95693.09
2019-03-03T21:29:56.481Z,95700.91
2019-03-03T21:32:22.560Z,95694.27
2019-03-03T21:34:48.455Z,95687.28
2019-03-03T21:37:14.276Z,95687.28
2019-03-03T21:39:40.105Z,95677.10
2019-03-03T21:42:05.936Z,95670.59
2019-03-03T21:44:31.752Z,95657.80
2019-03-03T21:46:57.673Z,95657.80
2019-03-03T21:49:23.460Z,95657.33
2019-03-03T21:51:49.531Z,95657.98
2019-03-03T21:54:15.358Z,95663.69
2019-03-03T21:56:41.174Z,95664.30
2019-03-03T21:59:07.114Z,95664.63
2019-03-03T22:01:32.917Z,95657.20
2019-03-03T22:03:58.747Z,95659.52
2019-03-03T22:06:24.547Z,95649.09
2019-03-03T22:08:50.373Z,95638.81
2019-03-03T22:11:16.422Z,95633.34
2019-03-03T22:13:42.270Z,95626.59
2019-03-03T22:16:08.064Z,95623.98
2019-03-03T22:18:33.874Z,95626.67
2019-03-03T22:20:59.687Z,95621.73
2019-03-03T22:23:25.498Z,95628.97
2019-03-03T22:25:51.586Z,95627.89
2019-03-03T22:28:17.388Z,95620.91
2019-03-03T22:30:43.186Z,95622.94
2019-03-03T22:33:09.013Z,95569.34
2019-03-03T22:35:34.847Z,95627.86
2019-03-03T22:38:00.616Z,95619.23
2019-03-03T22:40:26.420Z,95617.23
2019-03-03T22:42:52.255Z,95608.81
2019-03-03T22:45:18.091Z,95572.65
2019-03-03T22:47:44.186Z,95599.38
2019-03-03T22:50:17.157Z,95597.22
2019-03-03T22:52:43.018Z,95585.53
2019-03-03T22:55:11.026Z,95578.41
2019-03-03T22:57:36.925Z,95573.11
2019-03-03T23:00:15.402Z,95573.26
2019-03-03T23:02:41.396Z,95566.50
2019-03-03T23:05:14.242Z,95556.81
2019-03-03T23:07:52.815Z,95548.28
2019-03-03T23:10:39.621Z,95554.67
2019-03-03T23:13:27.996Z,95556.61
2019-03-03T23:16:16.021Z,95547.74
2019-03-03T23:18:55.129Z,95539.23
2019-03-03T23:21:34.008Z,95534.39
2019-03-03T23:24:22.824Z,95536.64
2019-03-03T23:26:48.632Z,95536.91
2019-03-03T23:29:19.240Z,95531.46
2019-03-03T23:31:48.216Z,95527.92
2019-03-03T23:34:14.286Z,95543.65
2019-03-03T23:36:40.100Z,95530.03
2019-03-03T23:39:06.022Z,95538.80
2019-03-03T23:41:32.134Z,95533.15
2019-03-03T23:44:01.109Z,95531.13
2019-03-03T23:46:26.923Z,95532.43
2019-03-03T23:48:54.652Z,95519.41
2019-03-03T23:51:20.455Z,95514.09
2019-03-03T23:53:49.300Z,95517.36
2019-03-03T23:56:15.122Z,95507.91
2019-03-03T23:58:43.711Z,95507.67
